sensor_id;sensor_type;location;lat;lon;timestamp;pressure;altitude;pressure_sealevel;temperature;humidity
71457;BME280;59263;48.160;11.752;2023-11-21T00:01:05;95468.84;;;6.85;100.00
71457;BME280;59263;48.160;11.752;2023-11-21T00:03:34;95467.84;;;6.76;100.00
71457;BME280;59263;48.160;11.752;2023-11-21T00:05:59;95468.75;;;6.66;100.00
71457;BME280;59263;48.160;11.752;2023-11-21T00:08:25;95471.06;;;6.69;100.00
71457;BME280;59263;48.160;11.752;2023-11-21T00:10:51;95467.94;;;6.65;100.00
71457;BME280;59263;48.160;11.752;2023-11-21T00:13:16;95478.22;;;6.65;100.00
71457;BME280;59263;48.160;11.752;2023-11-21T00:15:43;95481.47;;;6.67;100.00
71457;BME280;59263;48.160;11.752;2023-11-21T00:18:08;95481.19;;;6.61;100.00
71457;BME280;59263;48.160;11.752;2023-11-21T00:20:33;95482.16;;;6.48;100.00
71457;BME280;59263;48.160;11.752;2023-11-21T00:22:59;95491.59;;;6.38;100.00
71457;BME280;59263;48.160;11.752;2023-11-21T00:25:27;95498.34;;;6.39;100.00
71457;BME280;59263;48.160;11.752;2023-11-21T00:27:53;95500.50;;;6.34;100.00
71457;BME280;59263;48.160;11.752;2023-11-21T00:30:19;95492.34;;;6.29;100.00
71457;BME280;59263;48.160;11.752;2023-11-21T00:32:45;95476.31;;;6.16;100.00
71457;BME280;59263;48.160;11.752;2023-11-21T00:35:10;95477.91;;;6.17;100.00
71457;BME280;59263;48.160;11.752;2023-11-21T00:37:36;95473.66;;;6.27;100.00
71457;BME280;59263;48.160;11.752;2023-11-21T00:40:02;95468.69;;;6.14;100.00
71457;BME280;59263;48.160;11.752;2023-11-21T00:42:30;95461.75;;;6.26;100.00
71457;BME280;59263;48.160;11.752;2023-11-21T00:44:58;95467.44;;;6.29;100.00
71457;BME280;59263;48.160;11.752;2023-11-21T00:47:23;95456.59;;;6.26;100.00
71457;BME280;59263;48.160;11.752;2023-11-21T00:49:48;95464.31;;;6.26;100.00
71457;BME280;59263;48.160;11.752;2023-11-21T00:52:14;95457.56;;;6.25;100.00
71457;BME280;59263;48.160;11.752;2023-11-21T00:54:39;95458.25;;;6.27;100.00
71457;BME280;59263;48.160;11.752;2023-11-21T00:57:05;95460.13;;;6.25;100.00
71457;BME280;59263;48.160;11.752;2023-11-21T00:59:30;95464.94;;;6.18;100.00
71457;BME280;59263;48.160;11.752;2023-11-21T01:01:56;95461.19;;;6.22;100.00
71457;BME280;59263;48.160;11.752;2023-11-21T01:04:21;95452.66;;;6.22;100.00
71457;BME280;59263;48.160;11.752;2023-11-21T01:06:47;95458.66;;;6.11;100.00
71457;BME280;59263;48.160;11.752;2023-11-21T01:09:12;95457.53;;;6.04;100.00
71457;BME280;59263;48.160;11.752;2023-11-21T01:11:38;95458.88;;;5.98;100.00
71457;BME280;59263;48.160;11.752;2023-11-21T01:14:04;95466.56;;;5.98;100.00
71457;BME280;59263;48.160;11.752;2023-11-21T01:16:30;95463.19;;;5.98;100.00
71457;BME280;59263;48.160;11.752;2023-11-21T01:18:57;95470.19;;;5.96;100.00
71457;BME280;59263;48.160;11.752;2023-11-21T01:21:24;95469.38;;;5.95;100.00
71457;BME280;59263;48.160;11.752;2023-11-21T01:23:49;95463.44;;;5.95;100.00
71457;BME280;59263;48.160;11.752;2023-11-21T01:26:14;95450.44;;;5.96;100.00
71457;BME280;59263;48.160;11.752;2023-11-21T01:28:39;95455.91;;;6.03;100.00
71457;BME280;59263;48.160;11.752;2023-11-21T01:31:05;95458.38;;;6.04;100.00
71457;BME280;59263;48.160;11.752;2023-11-21T01:33:32;95461.63;;;6.06;100.00
71457;BME280;59263;48.160;11.752;2023-11-21T01:35:58;95466.75;;;6.06;100.00
71457;BME280;59263;48.160;11.752;2023-11-21T01:38:25;95456.47;;;6.06;100.00
71457;BME280;59263;48.160;11.752;2023-11-21T01:40:50;95466.31;;;6.01;100.00
71457;BME280;59263;48.160;11.752;2023-11-21T01:43:15;95472.50;;;5.99;100.00
71457;BME280;59263;48.160;11.752;2023-11-21T01:45:41;95473.78;;;6.04;100.00
71457;BME280;59263;48.160;11.752;2023-11-21T01:48:07;95462.69;;;6.04;100.00
71457;BME280;59263;48.160;11.752;2023-11-21T01:50:33;95461.44;;;5.98;100.00
71457;BME280;59263;48.160;11.752;2023-11-21T01:53:01;95460.25;;;5.91;100.00
71457;BME280;59263;48.160;11.752;2023-11-21T01:55:27;95463.56;;;5.93;100.00
71457;BME280;59263;48.160;11.752;2023-11-21T01:57:53;95453.97;;;5.95;100.00
71457;BME280;59263;48.160;11.752;2023-11-21T02:00:19;95458.75;;;5.89;100.00
71457;BME280;59263;48.160;11.752;2023-11-21T02:02:45;95457.59;;;5.81;100.00
71457;BME280;59263;48.160;11.752;2023-11-21T02:05:12;95460.31;;;5.80;100.00
71457;BME280;59263;48.160;11.752;2023-11-21T02:07:41;95462.63;;;5.83;100.00
71457;BME280;59263;48.160;11.752;2023-11-21T02:10:10;95463.81;;;5.79;100.00
71457;BME280;59263;48.160;11.752;2023-11-21T02:12:39;95465.69;;;5.77;100.00
71457;BME280;59263;48.160;11.752;2023-11-21T02:15:05;95465.69;;;5.77;100.00
71457;BME280;59263;48.160;11.752;2023-11-21T02:17:35;95458.94;;;5.76;100.00
71457;BME280;59263;48.160;11.752;2023-11-21T02:20:00;95471.63;;;5.77;100.00
71457;BME280;59263;48.160;11.752;2023-11-21T02:22:30;95468.44;;;5.85;100.00
71457;BME280;59263;48.160;11.752;2023-11-21T02:24:56;95453.25;;;6.04;100.00
71457;BME280;59263;48.160;11.752;2023-11-21T02:27:23;95445.34;;;6.38;100.00
71457;BME280;59263;48.160;11.752;2023-11-21T02:29:49;95445.53;;;6.25;100.00
71457;BME280;59263;48.160;11.752;2023-11-21T02:32:14;95440.56;;;6.34;100.00
71457;BME280;59263;48.160;11.752;2023-11-21T02:34:40;95440.69;;;6.32;100.00
71457;BME280;59263;48.160;11.752;2023-11-21T02:37:05;95446.16;;;6.39;100.00
71457;BME280;59263;48.160;11.752;2023-11-21T02:39:31;95451.78;;;6.33;100.00
71457;BME280;59263;48.160;11.752;2023-11-21T02:41:57;95452.91;;;6.40;100.00
71457;BME280;59263;48.160;11.752;2023-11-21T02:44:22;95454.50;;;6.31;100.00
71457;BME280;59263;48.160;11.752;2023-11-21T02:46:47;95457.16;;;6.29;100.00
71457;BME280;59263;48.160;11.752;2023-11-21T02:49:12;95462.88;;;6.33;100.00
71457;BME280;59263;48.160;11.752;2023-11-21T02:51:38;95456.38;;;6.29;100.00
71457;BME280;59263;48.160;11.752;2023-11-21T02:54:05;95461.75;;;6.26;100.00
71457;BME280;59263;48.160;11.752;2023-11-21T02:56:32;95465.41;;;6.23;100.00
71457;BME280;59263;48.160;11.752;2023-11-21T02:58:59;95464.38;;;6.15;100.00
71457;BME280;59263;48.160;11.752;2023-11-21T03:01:25;95455.75;;;6.16;100.00
71457;BME280;59263;48.160;11.752;2023-11-21T03:03:51;95457.28;;;6.07;100.00
71457;BME280;59263;48.160;11.752;2023-11-21T03:06:20;95456.00;;;6.13;100.00
71457;BME280;59263;48.160;11.752;2023-11-21T03:08:45;95447.59;;;6.11;100.00
71457;BME280;59263;48.160;11.752;2023-11-21T03:11:11;95442.44;;;6.11;100.00
71457;BME280;59263;48.160;11.752;2023-11-21T03:13:39;95451.09;;;6.10;100.00
71457;BME280;59263;48.160;11.752;2023-11-21T03:16:04;95454.34;;;6.12;100.00
71457;BME280;59263;48.160;11.752;2023-11-21T03:18:31;95444.03;;;6.02;100.00
71457;BME280;59263;48.160;11.752;2023-11-21T03:20:57;95448.34;;;6.01;100.00
71457;BME280;59263;48.160;11.752;2023-11-21T03:23:22;95435.94;;;6.06;100.00
71457;BME280;59263;48.160;11.752;2023-11-21T03:25:47;95433.75;;;6.02;100.00
71457;BME280;59263;48.160;11.752;2023-11-21T03:28:13;95430.81;;;6.06;100.00
71457;BME280;59263;48.160;11.752;2023-11-21T03:30:38;95431.44;;;5.99;100.00
71457;BME280;59263;48.160;11.752;2023-11-21T03:33:03;95440.88;;;5.98;100.00
71457;BME280;59263;48.160;11.752;2023-11-21T03:35:29;95431.03;;;6.03;100.00
71457;BME280;59263;48.160;11.752;2023-11-21T03:37:54;95422.66;;;6.01;100.00
71457;BME280;59263;48.160;11.752;2023-11-21T03:40:19;95433.44;;;5.95;100.00
71457;BME280;59263;48.160;11.752;2023-11-21T03:42:46;95432.50;;;5.85;100.00
71457;BME280;59263;48.160;11.752;2023-11-21T03:45:12;95436.94;;;5.94;100.00
71457;BME280;59263;48.160;11.752;2023-11-21T03:47:37;95440.84;;;6.10;100.00
71457;BME280;59263;48.160;11.752;2023-11-21T03:50:03;95435.94;;;6.06;100.00
71457;BME280;59263;48.160;11.752;2023-11-21T03:52:28;95441.63;;;6.10;100.00
71457;BME280;59263;48.160;11.752;2023-11-21T03:54:54;95443.22;;;6.01;100.00
71457;BME280;59263;48.160;11.752;2023-11-21T03:57:20;95443.47;;;5.98;100.00
71457;BME280;59263;48.160;11.752;2023-11-21T03:59:46;95435.78;;;5.87;100.00
71457;BME280;59263;48.160;11.752;2023-11-21T04:02:11;95436.88;;;6.05;100.00
71457;BME280;59263;48.160;11.752;2023-11-21T04:04:36;95443.72;;;6.16;100.00
71457;BME280;59263;48.160;11.752;2023-11-21T04:07:02;95436.81;;;6.17;100.00
71457;BME280;59263;48.160;11.752;2023-11-21T04:09:28;95437.31;;;6.11;100.00
71457;BME280;59263;48.160;11.752;2023-11-21T04:11:53;95437.50;;;5.98;100.00
71457;BME280;59263;48.160;11.752;2023-11-21T04:14:20;95424.03;;;6.05;100.00
71457;BME280;59263;48.160;11.752;2023-11-21T04:16:45;95427.56;;;6.04;100.00
71457;BME280;59263;48.160;11.752;2023-11-21T04:19:11;95419.84;;;6.04;100.00
71457;BME280;59263;48.160;11.752;2023-11-21T04:21:37;95412.41;;;6.01;100.00
71457;BME280;59263;48.160;11.752;2023-11-21T04:24:02;95411.88;;;6.07;100.00
71457;BME280;59263;48.160;11.752;2023-11-21T04:26:28;95414.91;;;6.13;100.00
71457;BME280;59263;48.160;11.752;2023-11-21T04:28:53;95420.28;;;6.10;100.00
71457;BME280;59263;48.160;11.752;2023-11-21T04:31:18;95428.94;;;6.09;100.00
71457;BME280;59263;48.160;11.752;2023-11-21T04:33:43;95436.38;;;6.12;100.00
71457;BME280;59263;48.160;11.752;2023-11-21T04:36:10;95432.91;;;6.22;100.00
71457;BME280;59263;48.160;11.752;2023-11-21T04:38:35;95427.91;;;6.21;100.00
71457;BME280;59263;48.160;11.752;2023-11-21T04:41:01;95435.19;;;6.16;100.00
71457;BME280;59263;48.160;11.752;2023-11-21T04:43:26;95441.19;;;6.26;100.00
71457;BME280;59263;48.160;11.752;2023-11-21T04:45:51;95419.03;;;6.25;100.00
71457;BME280;59263;48.160;11.752;2023-11-21T04:48:16;95427.91;;;6.21;100.00
71457;BME280;59263;48.160;11.752;2023-11-21T04:50:42;95422.53;;;6.24;100.00
71457;BME280;59263;48.160;11.752;2023-11-21T04:53:07;95418.84;;;6.17;100.00
71457;BME280;59263;48.160;11.752;2023-11-21T04:55:32;95424.94;;;6.16;100.00
71457;BME280;59263;48.160;11.752;2023-11-21T04:57:58;95422.47;;;6.14;100.00
71457;BME280;59263;48.160;11.752;2023-11-21T05:00:23;95420.53;;;6.06;100.00
71457;BME280;59263;48.160;11.752;2023-11-21T05:02:49;95428.38;;;6.05;100.00
71457;BME280;59263;48.160;11.752;2023-11-21T05:05:14;95433.75;;;6.02;100.00
71457;BME280;59263;48.160;11.752;2023-11-21T05:07:40;95435.13;;;6.06;100.00
71457;BME280;59263;48.160;11.752;2023-11-21T05:10:06;95425.66;;;6.06;100.00
71457;BME280;59263;48.160;11.752;2023-11-21T05:12:37;95432.19;;;6.11;100.00
71457;BME280;59263;48.160;11.752;2023-11-21T05:15:07;95432.69;;;6.04;100.00
71457;BME280;59263;48.160;11.752;2023-11-21T05:17:35;95435.44;;;6.13;100.00
71457;BME280;59263;48.160;11.752;2023-11-21T05:20:00;95432.19;;;6.11;100.00
71457;BME280;59263;48.160;11.752;2023-11-21T05:22:28;95425.19;;;6.13;100.00
71457;BME280;59263;48.160;11.752;2023-11-21T05:24:54;95431.88;;;6.25;100.00
71457;BME280;59263;48.160;11.752;2023-11-21T05:27:19;95445.66;;;6.24;100.00
71457;BME280;59263;48.160;11.752;2023-11-21T05:29:44;95436.19;;;6.24;100.00
71457;BME280;59263;48.160;11.752;2023-11-21T05:32:10;95437.25;;;6.22;100.00
71457;BME280;59263;48.160;11.752;2023-11-21T05:34:35;95430.34;;;6.22;100.00
71457;BME280;59263;48.160;11.752;2023-11-21T05:37:00;95434.31;;;6.05;100.00
71457;BME280;59263;48.160;11.752;2023-11-21T05:39:25;95445.25;;;6.07;100.00
71457;BME280;59263;48.160;11.752;2023-11-21T05:41:53;95443.50;;;6.08;100.00
71457;BME280;59263;48.160;11.752;2023-11-21T05:44:19;95453.66;;;6.10;100.00
71457;BME280;59263;48.160;11.752;2023-11-21T05:46:44;95449.22;;;6.12;100.00
71457;BME280;59263;48.160;11.752;2023-11-21T05:49:09;95453.66;;;6.10;100.00
71457;BME280;59263;48.160;11.752;2023-11-21T05:51:35;95451.44;;;6.16;100.00
71457;BME280;59263;48.160;11.752;2023-11-21T05:54:00;95446.84;;;6.20;100.00
71457;BME280;59263;48.160;11.752;2023-11-21T05:56:25;95446.56;;;6.23;100.00
71457;BME280;59263;48.160;11.752;2023-11-21T05:58:51;95452.84;;;6.30;100.00
71457;BME280;59263;48.160;11.752;2023-11-21T06:01:17;95458.13;;;6.28;100.00
71457;BME280;59263;48.160;11.752;2023-11-21T06:03:42;95457.13;;;6.20;100.00
71457;BME280;59263;48.160;11.752;2023-11-21T06:06:08;95455.78;;;6.25;100.00
71457;BME280;59263;48.160;11.752;2023-11-21T06:08:33;95452.34;;;6.36;100.00
71457;BME280;59263;48.160;11.752;2023-11-21T06:10:59;95451.22;;;6.29;100.00
71457;BME280;59263;48.160;11.752;2023-11-21T06:13:24;95455.47;;;6.19;100.00
71457;BME280;59263;48.160;11.752;2023-11-21T06:15:52;95461.47;;;6.19;100.00
71457;BME280;59263;48.160;11.752;2023-11-21T06:18:17;95464.22;;;6.27;100.00
71457;BME280;59263;48.160;11.752;2023-11-21T06:20:48;95462.63;;;6.36;100.00
71457;BME280;59263;48.160;11.752;2023-11-21T06:23:13;95469.66;;;6.34;100.00
71457;BME280;59263;48.160;11.752;2023-11-21T06:25:39;95461.81;;;6.36;100.00
71457;BME280;59263;48.160;11.752;2023-11-21T06:28:05;95472.78;;;6.38;100.00
71457;BME280;59263;48.160;11.752;2023-11-21T06:30:30;95482.63;;;6.33;100.00
71457;BME280;59263;48.160;11.752;2023-11-21T06:32:56;95483.75;;;6.40;100.00
71457;BME280;59263;48.160;11.752;2023-11-21T06:35:21;95487.28;;;6.39;100.00
71457;BME280;59263;48.160;11.752;2023-11-21T06:37:46;95477.97;;;6.47;100.00
71457;BME280;59263;48.160;11.752;2023-11-21T06:40:17;95481.50;;;6.46;100.00
71457;BME280;59263;48.160;11.752;2023-11-21T06:42:43;95483.25;;;6.46;100.00
71457;BME280;59263;48.160;11.752;2023-11-21T06:45:09;95491.13;;;6.33;100.00
71457;BME280;59263;48.160;11.752;2023-11-21T06:47:36;95488.88;;;6.40;100.00
71457;BME280;59263;48.160;11.752;2023-11-21T06:50:01;95492.97;;;6.42;100.00
71457;BME280;59263;48.160;11.752;2023-11-21T06:52:27;95494.59;;;6.43;100.00
71457;BME280;59263;48.160;11.752;2023-11-21T06:54:52;95500.44;;;6.45;100.00
71457;BME280;59263;48.160;11.752;2023-11-21T06:57:18;95495.47;;;6.53;100.00
71457;BME280;59263;48.160;11.752;2023-11-21T06:59:43;95501.09;;;6.47;100.00
71457;BME280;59263;48.160;11.752;2023-11-21T07:02:09;95503.56;;;6.49;100.00
71457;BME280;59263;48.160;11.752;2023-11-21T07:04:35;95510.56;;;6.47;100.00
71457;BME280;59263;48.160;11.752;2023-11-21T07:07:01;95500.63;;;6.53;100.00
71457;BME280;59263;48.160;11.752;2023-11-21T07:09:27;95510.72;;;6.45;100.00
71457;BME280;59263;48.160;11.752;2023-11-21T07:11:53;95509.25;;;6.52;100.00
71457;BME280;59263;48.160;11.752;2023-11-21T07:14:18;95506.06;;;6.60;100.00
71457;BME280;59263;48.160;11.752;2023-11-21T07:16:45;95517.41;;;6.58;100.00
71457;BME280;59263;48.160;11.752;2023-11-21T07:19:11;95513.91;;;6.59;100.00
71457;BME280;59263;48.160;11.752;2023-11-21T07:21:38;95519.91;;;6.69;100.00
71457;BME280;59263;48.160;11.752;2023-11-21T07:24:05;95514.47;;;6.62;100.00
71457;BME280;59263;48.160;11.752;2023-11-21T07:26:31;95511.22;;;6.60;100.00
71457;BME280;59263;48.160;11.752;2023-11-21T07:28:58;95520.38;;;6.53;100.00
71457;BME280;59263;48.160;11.752;2023-11-21T07:31:24;95518.72;;;6.52;100.00
71457;BME280;59263;48.160;11.752;2023-11-21T07:33:50;95526.25;;;6.65;100.00
71457;BME280;59263;48.160;11.752;2023-11-21T07:36:19;95514.84;;;6.58;100.00
71457;BME280;59263;48.160;11.752;2023-11-21T07:38:45;95525.13;;;6.58;100.00
71457;BME280;59263;48.160;11.752;2023-11-21T07:41:11;95523.22;;;6.60;100.00
71457;BME280;59263;48.160;11.752;2023-11-21T07:43:37;95526.81;;;6.68;100.00
71457;BME280;59263;48.160;11.752;2023-11-21T07:46:03;95532.06;;;6.67;100.00
71457;BME280;59263;48.160;11.752;2023-11-21T07:48:35;95521.53;;;6.70;100.00
71457;BME280;59263;48.160;11.752;2023-11-21T07:51:02;95530.75;;;6.72;100.00
71457;BME280;59263;48.160;11.752;2023-11-21T07:53:28;95517.44;;;6.88;100.00
71457;BME280;59263;48.160;11.752;2023-11-21T07:55:59;95523.00;;;6.93;100.00
71457;BME280;59263;48.160;11.752;2023-11-21T07:58:27;95525.16;;;6.88;100.00
71457;BME280;59263;48.160;11.752;2023-11-21T08:00:53;95517.91;;;7.03;100.00
71457;BME280;59263;48.160;11.752;2023-11-21T08:03:18;95531.25;;;6.87;100.00
71457;BME280;59263;48.160;11.752;2023-11-21T08:05:44;95506.22;;;6.89;100.00
71457;BME280;59263;48.160;11.752;2023-11-21T08:08:09;95515.03;;;6.96;100.00
71457;BME280;59263;48.160;11.752;2023-11-21T08:10:35;95521.38;;;6.92;100.00
71457;BME280;59263;48.160;11.752;2023-11-21T08:13:04;95520.09;;;7.08;100.00
71457;BME280;59263;48.160;11.752;2023-11-21T08:15:30;95499.81;;;7.14;100.00
71457;BME280;59263;48.160;11.752;2023-11-21T08:17:57;95523.38;;;7.10;100.00
71457;BME280;59263;48.160;11.752;2023-11-21T08:20:24;95513.66;;;7.23;100.00
71457;BME280;59263;48.160;11.752;2023-11-21T08:22:50;95516.88;;;7.15;100.00
71457;BME280;59263;48.160;11.752;2023-11-21T08:25:17;95515.91;;;7.07;100.00
71457;BME280;59263;48.160;11.752;2023-11-21T08:27:45;95497.28;;;6.93;100.00
71457;BME280;59263;48.160;11.752;2023-11-21T08:30:10;95511.97;;;7.02;100.00
71457;BME280;59263;48.160;11.752;2023-11-21T08:32:37;95507.84;;;6.90;100.00
71457;BME280;59263;48.160;11.752;2023-11-21T08:35:02;95519.75;;;6.91;100.00
71457;BME280;59263;48.160;11.752;2023-11-21T08:37:28;95514.06;;;6.88;100.00
71457;BME280;59263;48.160;11.752;2023-11-21T08:39:55;95512.47;;;6.96;100.00
71457;BME280;59263;48.160;11.752;2023-11-21T08:42:20;95510.91;;;7.05;100.00
71457;BME280;59263;48.160;11.752;2023-11-21T08:44:45;95504.75;;;7.27;100.00
71457;BME280;59263;48.160;11.752;2023-11-21T08:47:11;95484.78;;;7.60;100.00
71457;BME280;59263;48.160;11.752;2023-11-21T08:49:36;95494.97;;;7.81;100.00
71457;BME280;59263;48.160;11.752;2023-11-21T08:52:03;95494.03;;;7.72;100.00
71457;BME280;59263;48.160;11.752;2023-11-21T08:54:30;95489.69;;;7.82;100.00
71457;BME280;59263;48.160;11.752;2023-11-21T08:56:56;95501.38;;;7.86;100.00
71457;BME280;59263;48.160;11.752;2023-11-21T08:59:23;95501.06;;;7.70;100.00
71457;BME280;59263;48.160;11.752;2023-11-21T09:01:49;95510.00;;;7.66;100.00
71457;BME280;59263;48.160;11.752;2023-11-21T09:04:14;95497.81;;;7.68;100.00
71457;BME280;59263;48.160;11.752;2023-11-21T09:06:39;95515.03;;;7.77;100.00
71457;BME280;59263;48.160;11.752;2023-11-21T09:09:05;95514.63;;;7.72;100.00
71457;BME280;59263;48.160;11.752;2023-11-21T09:11:32;95513.66;;;7.73;100.00
71457;BME280;59263;48.160;11.752;2023-11-21T09:13:59;95489.66;;;7.53;100.00
71457;BME280;59263;48.160;11.752;2023-11-21T09:16:25;95520.88;;;7.79;100.00
71457;BME280;59263;48.160;11.752;2023-11-21T09:18:50;95527.34;;;7.73;100.00
71457;BME280;59263;48.160;11.752;2023-11-21T09:21:15;95536.06;;;7.92;100.00
71457;BME280;59263;48.160;11.752;2023-11-21T09:23:43;95531.59;;;7.84;100.00
71457;BME280;59263;48.160;11.752;2023-11-21T09:26:09;95533.09;;;7.87;100.00
71457;BME280;59263;48.160;11.752;2023-11-21T09:28:35;95529.25;;;7.81;100.00
71457;BME280;59263;48.160;11.752;2023-11-21T09:31:03;95532.38;;;7.85;100.00
71457;BME280;59263;48.160;11.752;2023-11-21T09:33:30;95536.34;;;7.79;100.00
71457;BME280;59263;48.160;11.752;2023-11-21T09:35:56;95539.56;;;7.81;100.00
71457;BME280;59263;48.160;11.752;2023-11-21T09:38:22;95544.31;;;7.86;100.00
71457;BME280;59263;48.160;11.752;2023-11-21T09:40:47;95548.66;;;7.75;100.00
71457;BME280;59263;48.160;11.752;2023-11-21T09:43:18;95546.06;;;7.75;100.00
71457;BME280;59263;48.160;11.752;2023-11-21T09:45:51;95551.94;;;7.87;100.00
71457;BME280;59263;48.160;11.752;2023-11-21T09:48:20;95553.66;;;7.77;100.00
71457;BME280;59263;48.160;11.752;2023-11-21T09:50:47;95536.03;;;7.72;100.00
71457;BME280;59263;48.160;11.752;2023-11-21T09:53:18;95540.38;;;7.72;100.00
71457;BME280;59263;48.160;11.752;2023-11-21T09:55:47;95544.16;;;7.78;100.00
71457;BME280;59263;48.160;11.752;2023-11-21T09:58:14;95553.66;;;7.77;100.00
71457;BME280;59263;48.160;11.752;2023-11-21T10:00:41;95553.13;;;7.83;100.00
71457;BME280;59263;48.160;11.752;2023-11-21T10:03:08;95538.25;;;8.06;100.00
71457;BME280;59263;48.160;11.752;2023-11-21T10:05:34;95537.72;;;8.03;100.00
71457;BME280;59263;48.160;11.752;2023-11-21T10:08:00;95531.34;;;8.07;100.00
71457;BME280;59263;48.160;11.752;2023-11-21T10:10:27;95536.09;;;8.02;100.00
71457;BME280;59263;48.160;11.752;2023-11-21T10:12:56;95539.59;;;8.00;100.00
71457;BME280;59263;48.160;11.752;2023-11-21T10:15:23;95540.16;;;8.14;100.00
71457;BME280;59263;48.160;11.752;2023-11-21T10:17:51;95538.41;;;8.24;100.00
71457;BME280;59263;48.160;11.752;2023-11-21T10:20:19;95530.38;;;8.37;100.00
71457;BME280;59263;48.160;11.752;2023-11-21T10:22:44;95528.66;;;8.37;100.00
71457;BME280;59263;48.160;11.752;2023-11-21T10:25:11;95529.88;;;8.43;100.00
71457;BME280;59263;48.160;11.752;2023-11-21T10:27:40;95517.94;;;8.42;100.00
71457;BME280;59263;48.160;11.752;2023-11-21T10:30:06;95513.88;;;8.39;100.00
71457;BME280;59263;48.160;11.752;2023-11-21T10:32:33;95521.72;;;8.47;100.00
71457;BME280;59263;48.160;11.752;2023-11-21T10:34:59;95519.03;;;8.39;100.00
71457;BME280;59263;48.160;11.752;2023-11-21T10:37:32;95517.94;;;8.42;100.00
71457;BME280;59263;48.160;11.752;2023-11-21T10:39:58;95514.00;;;8.38;100.00
71457;BME280;59263;48.160;11.752;2023-11-21T10:42:24;95530.09;;;8.30;100.00
71457;BME280;59263;48.160;11.752;2023-11-21T10:44:49;95524.03;;;8.31;100.00
71457;BME280;59263;48.160;11.752;2023-11-21T10:47:16;95521.47;;;8.51;100.00
71457;BME280;59263;48.160;11.752;2023-11-21T10:49:44;95522.00;;;8.44;100.00
71457;BME280;59263;48.160;11.752;2023-11-21T10:52:13;95523.06;;;8.52;100.00
71457;BME280;59263;48.160;11.752;2023-11-21T10:54:43;95521.72;;;8.47;100.00
71457;BME280;59263;48.160;11.752;2023-11-21T10:57:09;95533.13;;;8.55;100.00
71457;BME280;59263;48.160;11.752;2023-11-21T10:59:35;95528.22;;;8.52;100.00
71457;BME280;59263;48.160;11.752;2023-11-21T11:02:01;95526.88;;;8.47;100.00
71457;BME280;59263;48.160;11.752;2023-11-21T11:04:33;95532.56;;;8.41;100.00
71457;BME280;59263;48.160;11.752;2023-11-21T11:07:02;95542.88;;;8.41;100.00
71457;BME280;59263;48.160;11.752;2023-11-21T11:09:30;95528.13;;;8.43;100.00
71457;BME280;59263;48.160;11.752;2023-11-21T11:11:58;95533.94;;;8.16;100.00
71457;BME280;59263;48.160;11.752;2023-11-21T11:14:24;95533.78;;;8.18;100.00
71457;BME280;59263;48.160;11.752;2023-11-21T11:16:54;95537.44;;;8.25;100.00
71457;BME280;59263;48.160;11.752;2023-11-21T11:19:20;95540.41;;;8.30;100.00
71457;BME280;59263;48.160;11.752;2023-11-21T11:22:04;95531.63;;;8.52;100.00
71457;BME280;59263;48.160;11.752;2023-11-21T11:24:42;95529.00;;;8.81;100.00
71457;BME280;59263;48.160;11.752;2023-11-21T11:27:19;95517.88;;;8.71;100.00
71457;BME280;59263;48.160;11.752;2023-11-21T11:30:11;95514.03;;;8.94;100.00
71457;BME280;59263;48.160;11.752;2023-11-21T11:35:38;95510.69;;;9.12;100.00
71457;BME280;59263;48.160;11.752;2023-11-21T11:38:07;95508.59;;;8.98;100.00
71457;BME280;59263;48.160;11.752;2023-11-21T11:40:40;95502.94;;;8.84;100.00
71457;BME280;59263;48.160;11.752;2023-11-21T11:43:07;95507.28;;;8.74;100.00
71457;BME280;59263;48.160;11.752;2023-11-21T11:45:33;95521.13;;;8.83;100.00
71457;BME280;59263;48.160;11.752;2023-11-21T11:48:02;95517.28;;;8.96;100.00
71457;BME280;59263;48.160;11.752;2023-11-21T11:50:29;95521.38;;;8.89;100.00
71457;BME280;59263;48.160;11.752;2023-11-21T11:52:55;95511.59;;;8.93;100.00
71457;BME280;59263;48.160;11.752;2023-11-21T11:55:23;95509.69;;;8.95;100.00
71457;BME280;59263;48.160;11.752;2023-11-21T11:57:54;95502.84;;;9.04;100.00
71457;BME280;59263;48.160;11.752;2023-11-21T12:02:53;95502.75;;;8.95;100.00
71457;BME280;59263;48.160;11.752;2023-11-21T12:05:20;95499.38;;;8.85;100.00
71457;BME280;59263;48.160;11.752;2023-11-21T12:07:53;95512.44;;;8.74;100.00
71457;BME280;59263;48.160;11.752;2023-11-21T12:10:26;95508.63;;;8.78;100.00
71457;BME280;59263;48.160;11.752;2023-11-21T12:15:22;95506.75;;;8.70;100.00
71457;BME280;59263;48.160;11.752;2023-11-21T12:17:48;95506.84;;;8.88;100.00
71457;BME280;59263;48.160;11.752;2023-11-21T12:20:18;95503.75;;;8.85;100.00
71457;BME280;59263;48.160;11.752;2023-11-21T12:22:45;95501.03;;;8.86;100.00
71457;BME280;59263;48.160;11.752;2023-11-21T12:25:18;95500.72;;;8.89;100.00
71457;BME280;59263;48.160;11.752;2023-11-21T12:27:47;95504.16;;;8.80;100.00
71457;BME280;59263;48.160;11.752;2023-11-21T12:30:15;95502.66;;;8.78;100.00
71457;BME280;59263;48.160;11.752;2023-11-21T12:32:43;95506.06;;;8.78;100.00
71457;BME280;59263;48.160;11.752;2023-11-21T12:35:09;95504.00;;;8.91;100.00
71457;BME280;59263;48.160;11.752;2023-11-21T12:37:37;95501.75;;;8.69;100.00
71457;BME280;59263;48.160;11.752;2023-11-21T12:40:07;95500.78;;;8.70;100.00
71457;BME280;59263;48.160;11.752;2023-11-21T12:42:34;95506.06;;;8.78;100.00
71457;BME280;59263;48.160;11.752;2023-11-21T12:45:26;95505.13;;;8.69;100.00
71457;BME280;59263;48.160;11.752;2023-11-21T12:48:04;95490.25;;;8.54;100.00
71457;BME280;59263;48.160;11.752;2023-11-21T12:50:34;95509.16;;;8.82;100.00
71457;BME280;59263;48.160;11.752;2023-11-21T12:53:12;95504.00;;;8.91;100.00
71457;BME280;59263;48.160;11.752;2023-11-21T12:55:38;95511.31;;;8.96;100.00